Time;durP1;ratioP1;P1;durP2;ratioP2;P2;SDS_P1;SDS_P2;PMS_P1;PMS_P2;Temp;Humidity;BMP_temperature;BMP_pressure;BME280_temperature;BME280_humidity;BME280_pressure;Samples;Min_cycle;Max_cycle;Signal;HPM_P1;HPM_P2
2024/03/26 00:02:16;;;;;;;4.80;3.20;;;;;;;11.63;39.52;98304.50;4991065;28;20069;-83
2024/03/26 00:04:43;;;;;;;4.68;3.13;;;;;;;11.63;39.27;98310.56;4975037;28;20038;-82
2024/03/26 00:07:09;;;;;;;5.15;3.20;;;;;;;11.60;39.39;98310.81;4958960;28;20035;-82
2024/03/26 00:09:34;;;;;;;4.95;3.00;;;;;;;11.67;39.49;98343.31;4958687;28;20049;-82
2024/03/26 00:11:59;;;;;;;5.70;3.10;;;;;;;11.62;39.43;98340.25;4990726;28;20023;-82
2024/03/26 00:14:25;;;;;;;4.10;2.53;;;;;;;11.59;39.30;98336.13;4990855;28;20046;-82
2024/03/26 00:16:50;;;;;;;4.82;2.53;;;;;;;11.56;39.39;98332.97;4974241;28;20042;-82
2024/03/26 00:19:16;;;;;;;3.63;2.53;;;;;;;11.62;39.26;98348.09;4991378;28;20040;-82
2024/03/26 00:21:41;;;;;;;3.92;2.40;;;;;;;11.58;38.99;98344.94;4974859;28;20027;-81
2024/03/26 00:24:07;;;;;;;2.90;2.17;;;;;;;11.57;39.10;98347.69;4994119;28;20038;-81
2024/03/26 00:26:34;;;;;;;3.63;2.30;;;;;;;11.57;39.20;98353.75;4978120;28;20054;-81
2024/03/26 00:28:59;;;;;;;3.83;2.40;;;;;;;11.55;39.32;98350.44;4962581;28;20049;-82
2024/03/26 00:31:25;;;;;;;3.30;2.10;;;;;;;11.53;39.26;98346.31;4978162;28;20046;-82
2024/03/26 00:33:52;;;;;;;2.72;2.00;;;;;;;11.55;39.29;98349.59;4977782;28;20042;-82
2024/03/26 00:36:17;;;;;;;3.55;2.10;;;;;;;11.53;39.03;98344.50;4978739;28;20042;-83
2024/03/26 00:38:43;;;;;;;3.50;1.83;;;;;;;11.52;39.04;98344.66;4977864;28;20354;-85
2024/03/26 00:41:09;;;;;;;3.20;2.00;;;;;;;11.49;39.29;98330.03;4978050;28;20034;-84
2024/03/26 00:43:35;;;;;;;2.88;1.73;;;;;;;11.40;39.08;98328.22;4962605;28;20104;-84
2024/03/26 00:46:00;;;;;;;3.25;1.80;;;;;;;11.41;39.17;98325.47;4978058;28;20490;-85
2024/03/26 00:48:26;;;;;;;3.80;1.88;;;;;;;11.37;39.46;98323.28;4994440;28;20050;-85
2024/03/26 00:50:53;;;;;;;2.15;1.30;;;;;;;11.34;39.00;98329.59;4994781;28;20053;-84
2024/03/26 00:53:19;;;;;;;2.50;1.60;;;;;;;11.39;39.12;98344.88;4977954;28;20026;-83
2024/03/26 00:55:44;;;;;;;2.30;1.30;;;;;;;11.38;39.23;98351.06;4977963;28;20092;-84
2024/03/26 00:58:10;;;;;;;2.35;1.40;;;;;;;11.36;38.95;98353.78;4977670;28;20465;-85
2024/03/26 01:00:38;;;;;;;3.00;1.60;;;;;;;11.35;38.91;98348.69;4994197;28;20030;-85
2024/03/26 01:03:04;;;;;;;3.22;1.50;;;;;;;11.32;38.93;98348.97;4978121;28;20035;-85
2024/03/26 01:05:30;;;;;;;2.55;1.30;;;;;;;11.15;39.33;98330.34;4961825;28;20502;-85
2024/03/26 01:07:56;;;;;;;2.17;1.58;;;;;;;11.25;39.05;98353.88;4993903;28;20092;-83
2024/03/26 01:10:22;;;;;;;3.40;1.20;;;;;;;11.27;38.92;98366.81;4994071;28;20030;-84
2024/03/26 01:12:47;;;;;;;2.05;1.20;;;;;;;11.19;39.16;98365.69;4991921;28;20387;-83
2024/03/26 01:15:13;;;;;;;2.20;1.23;;;;;;;11.15;39.40;98366.91;4991926;28;20041;-84
2024/03/26 01:17:39;;;;;;;2.55;1.50;;;;;;;11.16;39.33;98367.72;4975437;28;20122;-83
2024/03/26 01:20:07;;;;;;;1.98;1.25;;;;;;;11.17;39.44;98372.81;4975680;28;20414;-84
2024/03/26 01:22:32;;;;;;;2.80;1.67;;;;;;;11.06;39.39;98365.06;4977432;28;20032;-84
2024/03/26 01:24:58;;;;;;;2.10;1.17;;;;;;;11.07;39.32;98369.34;4977612;28;20046;-85
2024/03/26 01:27:24;;;;;;;2.13;1.27;;;;;;;11.01;39.37;98360.22;4977670;28;20116;-83
2024/03/26 01:29:49;;;;;;;2.25;1.30;;;;;;;10.99;39.58;98370.00;4993597;28;20034;-83
2024/03/26 01:32:15;;;;;;;1.88;1.17;;;;;;;11.00;39.69;98371.63;4977297;28;20564;-83
2024/03/26 01:34:41;;;;;;;2.33;1.40;;;;;;;10.91;39.53;98359.38;4993807;28;20073;-84
2024/03/26 01:37:06;;;;;;;2.28;1.30;;;;;;;10.97;39.65;98378.91;4993547;28;20041;-83
2024/03/26 01:39:31;;;;;;;1.63;1.10;;;;;;;10.93;39.83;98375.72;4977147;28;20096;-83
2024/03/26 01:41:59;;;;;;;1.50;1.10;;;;;;;10.92;39.87;98381.06;4993688;28;20026;-83
2024/03/26 01:44:24;;;;;;;2.67;1.20;;;;;;;10.89;39.81;98376.09;4977196;28;20125;-83
2024/03/26 01:46:50;;;;;;;1.88;1.20;;;;;;;10.83;39.98;98374.81;4994243;28;20089;-83
2024/03/26 01:49:15;;;;;;;2.65;1.10;;;;;;;10.83;40.00;98380.03;4976704;28;20061;-84
2024/03/26 01:51:42;;;;;;;2.08;1.20;;;;;;;10.83;40.19;98390.47;4993480;28;20093;-80
2024/03/26 01:54:07;;;;;;;1.73;1.17;;;;;;;10.81;40.05;98390.63;4960547;28;20547;-81
2024/03/26 01:56:33;;;;;;;1.88;1.30;;;;;;;10.72;39.89;98385.31;4971233;28;20037;-80
2024/03/26 01:58:58;;;;;;;2.20;1.20;;;;;;;10.76;40.09;98395.41;4960767;28;20117;-79
2024/03/26 02:01:28;;;;;;;1.80;1.17;;;;;;;10.69;40.09;98391.66;4960531;28;20544;-80
2024/03/26 02:03:54;;;;;;;2.78;1.20;;;;;;;10.73;40.02;98398.25;4944719;28;20069;-80
2024/03/26 02:06:19;;;;;;;1.95;1.10;;;;;;;10.72;40.19;98409.66;4976497;28;20030;-79
2024/03/26 02:08:44;;;;;;;1.52;1.00;;;;;;;10.70;40.33;98408.13;4976281;28;20405;-81
2024/03/26 02:11:10;;;;;;;1.92;1.15;;;;;;;10.64;40.22;98410.28;4944238;28;20026;-80
2024/03/26 02:13:35;;;;;;;3.65;1.20;;;;;;;10.64;40.26;98412.06;4960245;28;20030;-81
2024/03/26 02:16:01;;;;;;;2.45;1.23;;;;;;;10.62;40.49;98421.81;4993546;28;20029;-80
2024/03/26 02:18:26;;;;;;;2.00;1.15;;;;;;;10.55;40.43;98413.66;4993543;28;20049;-79
2024/03/26 02:20:55;;;;;;;1.60;1.10;;;;;;;10.59;40.30;98424.66;4943576;28;20050;-79
2024/03/26 02:23:20;;;;;;;;;;;;;;;10.58;40.49;98433.44;4960432;28;20095;-78
2024/03/26 02:25:46;;;;;;;1.65;1.13;;;;;;;10.47;40.75;98419.50;4994288;28;19996;-80
2024/03/26 02:28:11;;;;;;;1.75;1.05;;;;;;;10.50;40.79;98437.50;4976485;28;20041;-79
2024/03/26 02:30:37;;;;;;;1.75;0.90;;;;;;;10.44;40.48;98437.19;4959961;28;20050;-79
2024/03/26 02:33:05;;;;;;;1.90;1.00;;;;;;;10.49;40.51;98455.91;4943405;28;20042;-79
2024/03/26 02:35:31;;;;;;;1.73;1.00;;;;;;;10.48;40.55;98452.47;4959802;28;20492;-80
2024/03/26 02:37:56;;;;;;;1.90;0.95;;;;;;;10.46;40.78;98461.38;4975990;28;20046;-80
2024/03/26 02:40:24;;;;;;;2.25;1.02;;;;;;;10.48;40.71;98464.69;4976107;28;20053;-80
2024/03/26 02:42:50;;;;;;;1.70;0.93;;;;;;;10.45;40.66;98470.13;4976077;28;20053;-80
2024/03/26 02:45:16;;;;;;;1.55;0.82;;;;;;;10.45;40.50;98470.13;4959754;28;20457;-80
2024/03/26 02:47:41;;;;;;;1.90;0.98;;;;;;;10.43;40.66;98464.22;4975024;28;20038;-79
2024/03/26 02:50:07;;;;;;;1.25;0.75;;;;;;;10.42;40.77;98457.34;4975646;28;20042;-79
2024/03/26 02:52:35;;;;;;;1.10;0.70;;;;;;;10.37;40.64;98459.50;4959349;28;20099;-79
2024/03/26 02:55:01;;;;;;;2.15;1.00;;;;;;;10.37;40.85;98459.50;4943673;28;20034;-78
2024/03/26 02:57:27;;;;;;;1.52;1.00;;;;;;;10.31;40.86;98447.75;4959420;28;20045;-80
2024/03/26 02:59:56;;;;;;;1.17;0.80;;;;;;;10.31;40.86;98451.19;4959073;28;20561;-80
2024/03/26 03:02:21;;;;;;;;;;;;;;;10.36;40.75;98450.84;4976037;28;20042;-77
2024/03/26 03:04:46;;;;;;;1.98;0.80;;;;;;;10.30;41.10;98457.34;4992884;28;19924;-78
2024/03/26 03:07:15;;;;;;;0.98;0.63;;;;;;;10.30;40.72;98456.50;4975938;28;20086;-79
2024/03/26 03:09:40;;;;;;;1.70;0.88;;;;;;;10.31;41.16;98451.19;4976319;28;20168;-79
2024/03/26 03:12:06;;;;;;;1.52;1.00;;;;;;;10.30;40.89;98452.13;4976037;28;20101;-79
2024/03/26 03:14:31;;;;;;;1.75;0.85;;;;;;;10.24;41.13;98442.16;4992776;28;20049;-77
2024/03/26 03:16:57;;;;;;;1.60;0.90;;;;;;;10.30;40.81;98451.28;4960054;28;20486;-79
2024/03/26 03:19:22;;;;;;;1.25;0.85;;;;;;;10.30;40.99;98443.47;4975362;28;20169;-80
2024/03/26 03:21:48;;;;;;;1.23;0.90;;;;;;;10.27;40.88;98448.94;4943556;28;20049;-79
2024/03/26 03:24:13;;;;;;;1.08;0.77;;;;;;;10.25;40.94;98446.44;4976258;28;20033;-78
2024/03/26 03:26:39;;;;;;;1.77;0.70;;;;;;;10.27;40.82;98454.97;4959443;28;20112;-78
2024/03/26 03:29:04;;;;;;;1.33;0.90;;;;;;;10.30;40.68;98464.34;4993293;28;20031;-79
2024/03/26 03:31:30;;;;;;;3.53;0.80;;;;;;;10.31;40.87;98466.84;4975973;28;20478;-77
2024/03/26 03:33:55;;;;;;;1.00;0.70;;;;;;;10.26;40.85;98452.47;4993094;28;20030;-77
2024/03/26 03:36:21;;;;;;;2.45;0.80;;;;;;;10.29;40.70;98453.09;4960253;28;20038;-78
2024/03/26 03:38:47;;;;;;;1.30;0.73;;;;;;;10.34;40.58;98464.94;4993048;28;20034;-78
2024/03/26 03:41:12;;;;;;;1.33;0.70;;;;;;;10.34;40.81;98464.94;4992786;28;20026;-77
2024/03/26 03:43:38;;;;;;;1.40;0.80;;;;;;;10.34;40.55;98462.34;4958548;28;20030;-79
2024/03/26 03:46:05;;;;;;;1.25;0.70;;;;;;;10.35;40.50;98470.03;4943155;28;20509;-78
2024/03/26 03:48:30;;;;;;;1.25;0.60;;;;;;;10.29;40.81;98460.91;4972275;28;20487;-77
2024/03/26 03:50:56;;;;;;;1.40;0.70;;;;;;;10.32;40.68;98465.88;4955536;28;20101;-77
2024/03/26 03:53:21;;;;;;;0.85;0.68;;;;;;;10.35;40.55;98475.25;4972065;28;20090;-78
2024/03/26 03:55:47;;;;;;;0.93;0.60;;;;;;;10.38;40.62;98479.41;4940393;28;20037;-78
2024/03/26 03:58:12;;;;;;;1.65;0.60;;;;;;;10.37;40.63;98482.97;4957122;28;20034;-77
2024/03/26 04:00:38;;;;;;;1.20;0.75;;;;;;;10.41;40.68;98487.00;4976190;28;20038;-80
2024/03/26 04:03:04;;;;;;;1.73;0.80;;;;;;;10.37;40.50;98477.75;4943421;28;20166;-81
2024/03/26 04:05:29;;;;;;;1.05;0.70;;;;;;;10.47;40.17;98494.34;4977690;28;20047;-87
2024/03/26 04:07:55;;;;;;;1.20;0.77;;;;;;;10.49;40.27;98490.66;4978096;28;20035;-79
2024/03/26 04:10:20;;;;;;;1.45;0.77;;;;;;;10.47;40.09;98482.13;4959626;28;20430;-86
2024/03/26 04:12:46;;;;;;;1.30;0.80;;;;;;;10.55;40.20;98491.09;4939849;29;20031;-85
2024/03/26 04:15:11;;;;;;;2.25;1.13;;;;;;;10.94;39.41;98504.50;4956837;28;20035;-87
2024/03/26 04:17:40;;;;;;;4.10;2.33;;;;;;;11.58;38.16;98499.16;4956402;29;20090;-89
2024/03/26 04:20:08;;;;;;;4.10;2.97;;;;;;;12.23;37.27;98501.53;4923896;29;20039;-89
2024/03/26 04:22:34;;;;;;;4.53;2.90;;;;;;;12.75;36.06;98503.97;4957061;29;20031;-81
2024/03/26 04:24:59;;;;;;;2.92;1.20;;;;;;;12.83;56.69;98519.84;4940302;29;20043;-81
2024/03/26 04:27:25;;;;;;;4.03;1.80;;;;;;;12.98;52.47;98519.44;4965572;28;20035;-83
2024/03/26 04:29:50;;;;;;;4.25;2.13;;;;;;;12.92;49.50;98527.84;4940588;29;20031;-88
2024/03/26 04:32:23;;;;;;;4.70;2.40;;;;;;;12.66;49.31;98525.75;4958520;29;20458;-74
2024/03/26 04:34:49;;;;;;;3.67;1.80;;;;;;;12.52;49.08;98526.13;4956206;29;20027;-73
2024/03/26 04:37:14;;;;;;;7.22;1.60;;;;;;;12.67;55.79;98540.50;4924809;29;20479;-72
2024/03/26 04:39:40;;;;;;;3.83;1.80;;;;;;;12.51;52.07;98541.03;4955636;29;20043;-74
2024/03/26 04:42:05;;;;;;;3.67;1.70;;;;;;;12.40;50.87;98546.38;4939615;29;20043;-72
2024/03/26 04:44:30;;;;;;;3.97;2.38;;;;;;;12.26;50.46;98551.00;4939487;29;20035;-74
2024/03/26 04:46:56;;;;;;;6.75;2.58;;;;;;;12.10;48.71;98540.22;4939388;29;20142;-73
2024/03/26 04:49:21;;;;;;;6.65;3.22;;;;;;;12.10;47.17;98542.81;4955385;28;20121;-73
2024/03/26 04:51:47;;;;;;;12.38;6.03;;;;;;;12.18;48.98;98547.41;4939686;29;20463;-73
2024/03/26 04:54:12;;;;;;;13.20;6.20;;;;;;;12.17;48.17;98548.34;4956706;28;20031;-74
2024/03/26 04:56:38;;;;;;;11.60;6.70;;;;;;;12.23;47.01;98564.34;4955537;29;20041;-74
2024/03/26 04:59:03;;;;;;;13.63;7.60;;;;;;;12.28;46.24;98574.41;4955911;28;20403;-74
2024/03/26 05:01:29;;;;;;;14.80;6.13;;;;;;;12.54;47.41;98587.03;4956738;28;20050;-74
2024/03/26 05:03:54;;;;;;;7.68;3.03;;;;;;;13.16;62.54;98601.66;4940116;29;20454;-73
2024/03/26 05:06:20;;;;;;;10.10;3.42;;;;;;;13.87;54.58;98597.09;4957337;28;20062;-74
2024/03/26 05:08:45;;;;;;;10.55;4.82;;;;;;;14.11;49.62;98592.19;4939068;28;20094;-71
2024/03/26 05:11:10;;;;;;;10.93;4.47;;;;;;;14.16;47.37;98596.19;4939455;29;20046;-71
2024/03/26 05:13:36;;;;;;;8.38;4.72;;;;;;;14.23;45.87;98605.97;4939275;29;20443;-74
2024/03/26 05:16:01;;;;;;;9.30;4.70;;;;;;;14.38;44.57;98610.75;4939280;29;20047;-74
2024/03/26 05:18:30;;;;;;;10.52;4.53;;;;;;;14.49;42.30;98610.56;4955333;29;20036;-75
2024/03/26 05:20:58;;;;;;;;;;;;;;;14.90;41.04;98613.69;4939557;29;20028;-73
2024/03/26 05:23:23;;;;;;;16.02;5.50;;;;;;;15.09;40.18;98609.28;4956153;28;19961;-74
2024/03/26 05:25:49;;;;;;;9.82;5.30;;;;;;;15.20;38.74;98615.16;4939153;29;20039;-74
2024/03/26 05:28:14;;;;;;;8.43;5.25;;;;;;;15.27;38.48;98619.81;4955136;29;20046;-74
2024/03/26 05:30:40;;;;;;;12.32;5.35;;;;;;;15.23;37.20;98616.66;4955059;29;20069;-74
2024/03/26 05:33:05;;;;;;;13.65;6.95;;;;;;;15.34;36.69;98621.69;4923025;29;20032;-73
2024/03/26 05:35:31;;;;;;;13.65;8.30;;;;;;;15.47;35.83;98613.41;4939267;29;20031;-73
2024/03/26 05:37:58;;;;;;;14.82;7.45;;;;;;;15.78;35.22;98618.31;4922893;29;20047;-74
2024/03/26 05:40:24;;;;;;;14.17;7.27;;;;;;;15.97;34.67;98612.03;4955710;28;20493;-76
2024/03/26 05:42:49;;;;;;;10.55;6.97;;;;;;;16.33;34.13;98618.97;4923176;29;20023;-76
2024/03/26 05:45:15;;;;;;;9.68;7.10;;;;;;;16.44;33.95;98610.78;4938549;29;20047;-74
2024/03/26 05:47:40;;;;;;;13.05;6.47;;;;;;;16.73;33.36;98597.25;4954263;29;20412;-74
2024/03/26 05:50:06;;;;;;;18.27;6.97;;;;;;;17.60;31.84;98601.34;4938598;29;20059;-73
2024/03/26 05:52:32;;;;;;;12.35;6.03;;;;;;;18.63;30.64;98600.66;4954762;29;20027;-75
2024/03/26 05:54:57;;;;;;;9.40;5.97;;;;;;;19.53;29.51;98591.38;4938424;29;20415;-76
2024/03/26 05:57:23;;;;;;;12.00;6.22;;;;;;;20.34;28.59;98590.78;4954585;29;20070;-75
2024/03/26 05:59:48;;;;;;;10.18;6.00;;;;;;;21.25;27.60;98593.91;4922768;29;20086;-74
2024/03/26 06:02:14;;;;;;;13.35;7.68;;;;;;;21.96;26.98;98593.06;4939011;29;20023;-75
2024/03/26 06:04:40;;;;;;;21.38;6.22;;;;;;;22.62;25.75;98602.47;4923213;29;20043;-75
2024/03/26 06:07:05;;;;;;;10.40;5.50;;;;;;;22.99;25.02;98597.66;4939001;29;20027;-75
2024/03/26 06:09:31;;;;;;;11.95;4.72;;;;;;;23.34;24.29;98594.94;4938566;29;20035;-74
2024/03/26 06:11:56;;;;;;;10.90;5.07;;;;;;;23.84;23.81;98594.53;4938131;29;20043;-74
2024/03/26 06:14:22;;;;;;;9.35;4.43;;;;;;;24.48;23.19;98600.13;4954282;29;20061;-73
2024/03/26 06:16:47;;;;;;;9.02;3.72;;;;;;;24.97;22.56;98596.06;4937694;29;20051;-75
2024/03/26 06:19:13;;;;;;;9.07;4.57;;;;;;;25.33;22.13;98596.50;4922029;29;20479;-74
2024/03/26 06:21:39;;;;;;;6.65;4.78;;;;;;;25.52;21.50;98598.19;4921834;29;20066;-75
2024/03/26 06:24:04;;;;;;;6.00;4.15;;;;;;;25.79;20.96;98606.00;4922406;29;20475;-75
2024/03/26 06:26:30;;;;;;;7.70;3.90;;;;;;;26.21;20.40;98610.81;4922377;29;20114;-73
2024/03/26 06:28:55;;;;;;;5.93;3.60;;;;;;;26.43;19.74;98608.50;4922239;29;20045;-74
2024/03/26 06:31:21;;;;;;;4.07;2.78;;;;;;;26.63;19.12;98608.25;4938118;29;20038;-74
2024/03/26 06:33:46;;;;;;;6.13;2.97;;;;;;;26.81;19.05;98605.59;4953616;29;20132;-75
2024/03/26 06:36:12;;;;;;;4.25;2.55;;;;;;;27.12;18.51;98603.75;4953873;29;20031;-74
2024/03/26 06:38:38;;;;;;;3.13;2.05;;;;;;;27.51;18.50;98606.88;4953615;29;20396;-74
2024/03/26 06:41:04;;;;;;;3.28;1.77;;;;;;;27.85;18.06;98609.84;4954287;29;20035;-74
2024/03/26 06:43:29;;;;;;;4.97;1.88;;;;;;;28.02;18.07;98603.81;4954999;28;20086;-74
2024/03/26 06:45:55;;;;;;;3.75;1.90;;;;;;;28.25;17.43;98606.47;4937681;29;20090;-75
2024/03/26 06:48:20;;;;;;;4.93;1.98;;;;;;;28.50;17.31;98616.13;4921784;29;20054;-74
2024/03/26 06:50:46;;;;;;;3.92;2.00;;;;;;;28.73;16.88;98612.56;4920835;29;20045;-73
2024/03/26 06:53:11;;;;;;;4.63;1.70;;;;;;;28.97;16.45;98616.00;4937205;29;20050;-75
2024/03/26 06:55:37;;;;;;;4.47;1.77;;;;;;;29.15;16.20;98614.19;4921875;29;20035;-74
2024/03/26 06:58:02;;;;;;;6.00;1.88;;;;;;;29.23;15.91;98616.50;4937108;29;20451;-74
2024/03/26 07:00:28;;;;;;;6.80;2.15;;;;;;;29.02;16.00;98608.03;4921733;29;20042;-79
2024/03/26 07:02:57;;;;;;;4.13;2.15;;;;;;;28.81;16.64;98622.13;4922135;29;20493;-77
2024/03/26 07:05:28;;;;;;;4.07;1.83;;;;;;;28.50;20.85;98627.66;4960235;29;20043;-83
2024/03/26 07:07:54;;;;;;;7.32;2.20;;;;;;;28.13;23.56;98624.44;4958936;28;20058;-79
2024/03/26 07:10:20;;;;;;;9.48;2.42;;;;;;;27.83;21.66;98614.59;4921968;29;20035;-81
2024/03/26 07:12:46;;;;;;;7.38;2.95;;;;;;;27.86;20.73;98624.88;4921936;29;20046;-78
2024/03/26 07:15:12;;;;;;;12.80;3.40;;;;;;;27.92;20.14;98626.63;4937708;29;20031;-80
2024/03/26 07:17:40;;;;;;;7.15;3.47;;;;;;;28.25;19.53;98635.19;4922359;29;20105;-78
2024/03/26 07:20:09;;;;;;;10.85;4.10;;;;;;;28.62;18.77;98635.75;4922706;29;20035;-79
2024/03/26 07:22:37;;;;;;;10.18;3.60;;;;;;;29.05;18.35;98641.69;4938791;29;20035;-79
2024/03/26 07:25:03;;;;;;;12.50;3.90;;;;;;;29.51;17.95;98644.38;4938237;29;20125;-76
2024/03/26 07:27:28;;;;;;;9.45;3.92;;;;;;;30.07;17.12;98629.16;4921620;29;20046;-77
2024/03/26 07:29:54;;;;;;;11.55;4.20;;;;;;;31.05;16.32;98632.34;4922238;29;20031;-78
2024/03/26 07:32:19;;;;;;;8.95;3.67;;;;;;;31.73;15.77;98641.59;4921080;29;20415;-77
2024/03/26 07:34:45;;;;;;;12.32;3.50;;;;;;;32.35;15.15;98638.53;4937743;28;20031;-79
2024/03/26 07:37:10;;;;;;;11.38;3.10;;;;;;;33.07;14.63;98644.25;4937661;28;20474;-78
2024/03/26 07:39:36;;;;;;;8.77;3.38;;;;;;;33.77;13.36;98639.19;4953416;29;20031;-79
2024/03/26 07:42:01;;;;;;;9.45;2.88;;;;;;;34.63;13.35;98631.16;4953040;29;20050;-78
2024/03/26 07:44:27;;;;;;;7.30;3.08;;;;;;;35.26;12.90;98627.06;4921214;29;20414;-78
2024/03/26 07:46:52;;;;;;;6.28;2.70;;;;;;;36.40;12.26;98627.66;4937817;29;20043;-80
2024/03/26 07:49:18;;;;;;;7.35;2.50;;;;;;;37.43;11.36;98631.72;4937788;29;20062;-79
2024/03/26 07:51:43;;;;;;;7.45;2.50;;;;;;;37.64;11.07;98621.34;4953207;29;20486;-79
2024/03/26 07:54:09;;;;;;;8.93;2.58;;;;;;;37.30;11.81;98616.97;4937220;29;20031;-76
2024/03/26 07:56:34;;;;;;;6.57;2.40;;;;;;;36.96;11.53;98615.28;4920994;29;20405;-79
2024/03/26 07:59:00;;;;;;;4.25;2.10;;;;;;;36.37;11.79;98612.78;4921326;29;20421;-79
2024/03/26 08:01:26;;;;;;;6.40;2.00;;;;;;;35.88;11.88;98615.72;4937137;29;20031;-80
2024/03/26 08:03:51;;;;;;;7.50;1.90;;;;;;;34.76;12.59;98605.34;4922328;29;20073;-82
2024/03/26 08:06:17;;;;;;;8.35;2.00;;;;;;;33.81;13.71;98606.97;4938536;29;20062;-82
2024/03/26 08:08:46;;;;;;;4.47;1.90;;;;;;;32.53;14.49;98605.66;4922474;29;20074;-81
2024/03/26 08:11:14;;;;;;;4.88;1.70;;;;;;;31.59;14.97;98605.34;4940174;29;20170;-82
2024/03/26 08:13:40;;;;;;;3.53;1.67;;;;;;;31.07;15.89;98601.34;4938775;29;20054;-83
2024/03/26 08:16:07;;;;;;;3.38;1.45;;;;;;;30.83;16.01;98607.00;4952849;28;20478;-84
2024/03/26 08:18:40;;;;;;;3.10;1.35;;;;;;;30.53;16.25;98602.06;4939660;29;20574;-83
2024/03/26 08:21:09;;;;;;;3.45;1.58;;;;;;;30.27;16.34;98612.50;4952919;29;20114;-85
2024/03/26 08:23:43;;;;;;;5.18;1.73;;;;;;;29.99;17.19;98607.25;4954491;29;20042;-81
2024/03/26 08:26:12;;;;;;;3.30;1.70;;;;;;;29.83;17.14;98600.84;4921679;29;20491;-81
2024/03/26 08:28:39;;;;;;;3.95;1.60;;;;;;;29.53;17.29;98610.81;4919862;29;20035;-80
2024/03/26 08:31:05;;;;;;;2.30;1.40;;;;;;;29.43;17.70;98594.53;4920902;29;20059;-82
2024/03/26 08:33:32;;;;;;;3.30;1.85;;;;;;;29.50;17.65;98602.44;4920867;29;20035;-83
2024/03/26 08:36:04;;;;;;;4.47;1.70;;;;;;;29.18;17.82;98605.63;4924600;29;20039;-82
2024/03/26 08:38:32;;;;;;;4.90;1.65;;;;;;;28.92;17.90;98597.09;4922778;29;20105;-75
2024/03/26 08:40:58;;;;;;;3.22;1.70;;;;;;;28.82;18.39;98600.41;4936478;29;20038;-79
2024/03/26 08:43:23;;;;;;;15.88;2.88;;;;;;;28.52;20.35;98581.78;4920719;28;20126;-72
2024/03/26 08:45:49;;;;;;;16.50;3.00;;;;;;;27.67;20.65;98591.19;4939443;29;20035;-73
2024/03/26 08:48:14;;;;;;;14.98;2.88;;;;;;;27.39;21.91;98585.44;4939458;29;20059;-74
2024/03/26 08:50:40;;;;;;;5.85;1.90;;;;;;;26.97;20.22;98601.47;4923537;29;20043;-73
2024/03/26 08:53:05;;;;;;;9.30;2.65;;;;;;;26.80;21.52;98608.50;4956972;29;20034;-72
2024/03/26 08:55:32;;;;;;;15.35;2.65;;;;;;;25.96;20.53;98599.06;4924064;29;20034;-70
2024/03/26 08:57:57;;;;;;;22.08;3.88;;;;;;;25.45;23.16;98598.25;4939969;29;20027;-74
2024/03/26 09:00:23;;;;;;;6.95;2.13;;;;;;;25.02;20.10;98609.59;4922013;29;20039;-76
2024/03/26 09:02:48;;;;;;;17.15;2.78;;;;;;;24.68;22.11;98608.13;4938759;29;20479;-76
2024/03/26 09:05:14;;;;;;;7.50;2.55;;;;;;;24.39;22.58;98605.72;4922495;29;20055;-78
2024/03/26 09:07:40;;;;;;;8.13;1.90;;;;;;;24.12;20.71;98612.97;4923814;29;20039;-80
2024/03/26 09:10:06;;;;;;;7.53;2.10;;;;;;;24.14;23.41;98608.22;4923985;29;20043;-78
2024/03/26 09:12:38;;;;;;;7.88;3.20;;;;;;;24.37;20.30;98605.13;4939461;29;20042;-77
2024/03/26 09:15:04;;;;;;;4.80;1.80;;;;;;;24.21;19.88;98613.56;4955286;29;20046;-77
2024/03/26 09:17:29;;;;;;;3.63;1.30;;;;;;;23.80;19.41;98603.97;4923896;29;20054;-78
2024/03/26 09:19:55;;;;;;;8.35;1.65;;;;;;;23.64;21.68;98600.69;4955709;28;20035;-76
2024/03/26 09:22:20;;;;;;;11.18;1.50;;;;;;;23.65;21.57;98604.16;4939978;29;20548;-82
2024/03/26 09:24:46;;;;;;;2.30;1.33;;;;;;;23.48;22.61;98601.91;4923795;29;20090;-81
2024/03/26 09:27:11;;;;;;;7.65;1.38;;;;;;;23.19;21.21;98589.75;4924754;29;20035;-84
2024/03/26 09:29:38;;;;;;;4.68;1.20;;;;;;;23.01;21.21;98602.78;4924362;29;20518;-90
2024/03/26 09:32:04;;;;;;;5.00;1.30;;;;;;;22.72;21.14;98600.28;4947721;29;20145;-85
2024/03/26 09:34:30;;;;;;;6.35;1.33;;;;;;;22.79;24.20;98594.13;4939409;29;20111;-79
2024/03/26 09:36:56;;;;;;;1.80;1.00;;;;;;;23.02;24.12;98586.63;4923338;29;20134;-82
2024/03/26 09:39:24;;;;;;;4.88;1.02;;;;;;;23.41;22.35;98605.56;4955901;29;20038;-83
2024/03/26 09:41:50;;;;;;;2.33;1.13;;;;;;;23.53;20.73;98601.28;4940767;29;20486;-84
2024/03/26 09:44:15;;;;;;;6.50;0.93;;;;;;;23.84;21.95;98607.88;4926261;29;20090;-83
2024/03/26 09:46:41;;;;;;;6.38;1.10;;;;;;;23.96;21.56;98602.75;4930914;29;20031;-85
2024/03/26 09:49:07;;;;;;;2.25;1.00;;;;;;;23.89;20.50;98605.41;4958227;29;20050;-78
2024/03/26 09:51:33;;;;;;;2.78;0.90;;;;;;;24.00;20.07;98601.28;4939107;29;20392;-78
2024/03/26 09:53:59;;;;;;;2.08;0.98;;;;;;;23.86;19.68;98573.00;4923099;29;20023;-77
2024/03/26 09:56:24;;;;;;;1.80;1.10;;;;;;;23.94;19.80;98596.78;4936748;29;20030;-78
2024/03/26 09:58:50;;;;;;;3.70;1.10;;;;;;;23.94;19.50;98584.28;4922687;29;20043;-79
2024/03/26 10:01:16;;;;;;;2.00;1.00;;;;;;;23.84;19.20;98587.34;4922840;29;20482;-79
2024/03/26 10:03:42;;;;;;;2.03;1.10;;;;;;;23.81;18.84;98578.94;4939072;29;20030;-79
2024/03/26 10:06:07;;;;;;;2.50;1.00;;;;;;;23.77;18.77;98580.38;4922866;29;20050;-80
2024/03/26 10:08:33;;;;;;;2.83;0.90;;;;;;;23.57;18.95;98577.72;4955989;28;20035;-80
2024/03/26 10:10:59;;;;;;;3.38;0.98;;;;;;;23.42;18.82;98573.41;4922619;29;20031;-78
2024/03/26 10:13:27;;;;;;;2.33;1.05;;;;;;;23.43;18.67;98575.03;4938936;29;20471;-80
2024/03/26 10:15:53;;;;;;;;;;;;;;;23.30;18.75;98578.50;4954936;28;20115;-79
2024/03/26 10:18:18;;;;;;;3.17;0.90;;;;;;;23.33;18.75;98585.28;4954267;29;20406;-79
2024/03/26 10:20:44;;;;;;;1.60;0.85;;;;;;;23.29;18.75;98574.22;4938537;29;20035;-79
2024/03/26 10:23:09;;;;;;;1.83;0.82;;;;;;;23.33;18.71;98577.28;4938368;29;20074;-79
2024/03/26 10:25:35;;;;;;;2.08;0.80;;;;;;;23.18;18.24;98574.00;4922449;29;20070;-78
2024/03/26 10:28:01;;;;;;;1.50;0.70;;;;;;;23.03;18.02;98569.63;4954012;29;20110;-81
2024/03/26 10:30:27;;;;;;;2.47;0.80;;;;;;;22.95;18.14;98559.19;4938269;29;20159;-79
2024/03/26 10:32:58;;;;;;;1.35;0.80;;;;;;;22.90;18.24;98559.78;4937982;29;20495;-78
2024/03/26 10:35:24;;;;;;;1.70;0.60;;;;;;;22.91;17.96;98561.44;4938544;29;20035;-78
2024/03/26 10:37:51;;;;;;;2.05;0.73;;;;;;;22.81;17.94;98552.19;4922913;29;20403;-79
2024/03/26 10:40:34;;;;;;;4.07;0.75;;;;;;;22.77;17.75;98555.25;4922357;29;20061;-79
2024/03/26 10:43:00;;;;;;;2.10;0.70;;;;;;;22.81;17.47;98553.00;4937840;29;20102;-79
2024/03/26 10:45:26;;;;;;;1.00;0.50;;;;;;;22.88;17.06;98543.22;4938114;29;20031;-79
2024/03/26 10:47:52;;;;;;;2.90;0.65;;;;;;;22.94;17.21;98544.22;4923161;28;20053;-78
2024/03/26 10:50:18;;;;;;;1.05;0.50;;;;;;;23.00;17.01;98534.63;4925155;28;20054;-81
2024/03/26 10:52:43;;;;;;;0.90;0.47;;;;;;;23.09;17.18;98538.78;4940992;28;20376;-79
2024/03/26 10:55:09;;;;;;;1.75;0.68;;;;;;;23.18;17.24;98526.88;4925221;28;20037;-81
2024/03/26 10:57:34;;;;;;;1.05;0.70;;;;;;;23.23;17.54;98528.94;4924511;28;20030;-79
2024/03/26 11:00:10;;;;;;;2.83;0.70;;;;;;;23.35;17.43;98524.63;4925109;28;20043;-78
2024/03/26 11:02:36;;;;;;;0.98;0.70;;;;;;;23.49;17.80;98528.13;4926699;28;20422;-80
2024/03/26 11:05:01;;;;;;;2.13;0.82;;;;;;;23.40;17.15;98518.69;4974246;28;20054;-79
2024/03/26 11:07:27;;;;;;;1.35;0.70;;;;;;;23.53;16.67;98520.53;4924359;28;20406;-78
2024/03/26 11:10:09;;;;;;;2.22;0.77;;;;;;;23.38;16.95;98524.22;4940803;28;20126;-79
2024/03/26 11:12:37;;;;;;;0.90;0.52;;;;;;;23.48;16.57;98531.81;4974113;28;20033;-78
2024/03/26 11:15:15;;;;;;;1.83;0.60;;;;;;;23.46;16.45;98520.53;4940540;28;20031;-78
2024/03/26 11:18:10;;;;;;;1.13;0.52;;;;;;;23.46;16.35;98517.88;4956472;28;20035;-78
2024/03/26 11:20:35;;;;;;;2.15;0.70;;;;;;;23.35;17.01;98516.66;4973067;28;20124;-78
2024/03/26 11:23:05;;;;;;;1.77;0.70;;;;;;;23.21;16.70;98507.81;4924397;28;20070;-78
2024/03/26 11:25:31;;;;;;;1.33;0.70;;;;;;;23.23;16.63;98504.97;4940191;28;20070;-77
2024/03/26 11:27:58;;;;;;;1.83;0.85;;;;;;;23.14;16.72;98501.69;4955987;28;20037;-78
2024/03/26 11:30:32;;;;;;;2.40;0.77;;;;;;;23.01;16.85;98502.47;4924274;28;20352;-77